sensor_id;sensor_type;location;lat;lon;timestamp;P1;durP1;ratioP1;P2;durP2;ratioP2
54627;SDS011;40525;55.926;21.066;2024-02-21T00:00:53;1.20;;;0.20;;
54627;SDS011;40525;55.926;21.066;2024-02-21T00:03:20;0.80;;;0.40;;
54627;SDS011;40525;55.926;21.066;2024-02-21T00:05:47;0.40;;;0.30;;
54627;SDS011;40525;55.926;21.066;2024-02-21T00:08:14;0.20;;;0.10;;
54627;SDS011;40525;55.926;21.066;2024-02-21T00:10:41;1.50;;;0.20;;
54627;SDS011;40525;55.926;21.066;2024-02-21T00:13:09;1.20;;;0.40;;
54627;SDS011;40525;55.926;21.066;2024-02-21T00:15:35;0.30;;;0.30;;
54627;SDS011;40525;55.926;21.066;2024-02-21T00:18:02;0.20;;;0.20;;
54627;SDS011;40525;55.926;21.066;2024-02-21T00:20:30;0.90;;;0.20;;
54627;SDS011;40525;55.926;21.066;2024-02-21T00:22:57;0.80;;;0.30;;
54627;SDS011;40525;55.926;21.066;2024-02-21T00:25:24;0.30;;;0.20;;
54627;SDS011;40525;55.926;21.066;2024-02-21T00:27:51;0.30;;;0.20;;
54627;SDS011;40525;55.926;21.066;2024-02-21T00:30:18;0.40;;;0.20;;
54627;SDS011;40525;55.926;21.066;2024-02-21T00:32:45;1.30;;;0.40;;
54627;SDS011;40525;55.926;21.066;2024-02-21T00:35:11;0.60;;;0.40;;
54627;SDS011;40525;55.926;21.066;2024-02-21T00:37:39;0.50;;;0.30;;
54627;SDS011;40525;55.926;21.066;2024-02-21T00:40:06;0.80;;;0.30;;
54627;SDS011;40525;55.926;21.066;2024-02-21T00:42:33;1.40;;;0.40;;
54627;SDS011;40525;55.926;21.066;2024-02-21T00:45:00;0.80;;;0.40;;
54627;SDS011;40525;55.926;21.066;2024-02-21T00:47:27;0.40;;;0.20;;
54627;SDS011;40525;55.926;21.066;2024-02-21T00:49:54;0.40;;;0.30;;
54627;SDS011;40525;55.926;21.066;2024-02-21T00:52:22;0.20;;;0.20;;
54627;SDS011;40525;55.926;21.066;2024-02-21T00:54:48;0.40;;;0.30;;
54627;SDS011;40525;55.926;21.066;2024-02-21T00:57:20;0.70;;;0.40;;
54627;SDS011;40525;55.926;21.066;2024-02-21T00:59:48;0.30;;;0.20;;
54627;SDS011;40525;55.926;21.066;2024-02-21T01:02:14;0.40;;;0.30;;
54627;SDS011;40525;55.926;21.066;2024-02-21T01:04:42;0.40;;;0.20;;
54627;SDS011;40525;55.926;21.066;2024-02-21T01:07:09;0.30;;;0.20;;
54627;SDS011;40525;55.926;21.066;2024-02-21T01:09:36;0.30;;;0.20;;
54627;SDS011;40525;55.926;21.066;2024-02-21T01:12:03;0.50;;;0.20;;
54627;SDS011;40525;55.926;21.066;2024-02-21T01:14:31;0.30;;;0.10;;
54627;SDS011;40525;55.926;21.066;2024-02-21T01:16:58;2.10;;;0.20;;
54627;SDS011;40525;55.926;21.066;2024-02-21T01:19:25;0.20;;;0.10;;
54627;SDS011;40525;55.926;21.066;2024-02-21T01:21:52;0.90;;;0.00;;
54627;SDS011;40525;55.926;21.066;2024-02-21T01:24:19;0.20;;;0.10;;
54627;SDS011;40525;55.926;21.066;2024-02-21T01:26:46;0.20;;;0.10;;
54627;SDS011;40525;55.926;21.066;2024-02-21T01:29:13;1.30;;;0.10;;
54627;SDS011;40525;55.926;21.066;2024-02-21T01:31:40;0.40;;;0.20;;
54627;SDS011;40525;55.926;21.066;2024-02-21T01:34:08;0.20;;;0.10;;
54627;SDS011;40525;55.926;21.066;2024-02-21T01:36:35;0.20;;;0.10;;
54627;SDS011;40525;55.926;21.066;2024-02-21T01:39:02;0.20;;;0.10;;
54627;SDS011;40525;55.926;21.066;2024-02-21T01:41:29;0.30;;;0.20;;
54627;SDS011;40525;55.926;21.066;2024-02-21T01:43:57;0.20;;;0.10;;
54627;SDS011;40525;55.926;21.066;2024-02-21T01:46:25;1.10;;;0.10;;
54627;SDS011;40525;55.926;21.066;2024-02-21T01:48:55;0.30;;;0.20;;
54627;SDS011;40525;55.926;21.066;2024-02-21T01:51:24;0.20;;;0.20;;
54627;SDS011;40525;55.926;21.066;2024-02-21T01:53:51;0.30;;;0.10;;
54627;SDS011;40525;55.926;21.066;2024-02-21T01:56:20;0.50;;;0.20;;
54627;SDS011;40525;55.926;21.066;2024-02-21T01:58:48;0.60;;;0.20;;
54627;SDS011;40525;55.926;21.066;2024-02-21T02:01:16;1.00;;;0.10;;
54627;SDS011;40525;55.926;21.066;2024-02-21T02:03:48;0.40;;;0.20;;
54627;SDS011;40525;55.926;21.066;2024-02-21T02:06:16;0.50;;;0.20;;
54627;SDS011;40525;55.926;21.066;2024-02-21T02:08:43;0.40;;;0.20;;
54627;SDS011;40525;55.926;21.066;2024-02-21T02:11:12;1.50;;;0.30;;
54627;SDS011;40525;55.926;21.066;2024-02-21T02:13:40;0.50;;;0.20;;
54627;SDS011;40525;55.926;21.066;2024-02-21T02:16:07;1.30;;;0.20;;
54627;SDS011;40525;55.926;21.066;2024-02-21T02:18:34;2.50;;;0.40;;
54627;SDS011;40525;55.926;21.066;2024-02-21T02:21:03;2.30;;;0.30;;
54627;SDS011;40525;55.926;21.066;2024-02-21T02:23:35;0.40;;;0.30;;
54627;SDS011;40525;55.926;21.066;2024-02-21T02:26:02;0.20;;;0.10;;
54627;SDS011;40525;55.926;21.066;2024-02-21T02:28:29;0.20;;;0.10;;
54627;SDS011;40525;55.926;21.066;2024-02-21T02:30:56;0.30;;;0.20;;
54627;SDS011;40525;55.926;21.066;2024-02-21T02:33:23;0.20;;;0.10;;
54627;SDS011;40525;55.926;21.066;2024-02-21T02:35:50;0.40;;;0.20;;
54627;SDS011;40525;55.926;21.066;2024-02-21T02:38:17;0.30;;;0.10;;
54627;SDS011;40525;55.926;21.066;2024-02-21T02:40:44;0.70;;;0.20;;
54627;SDS011;40525;55.926;21.066;2024-02-21T02:43:12;0.60;;;0.40;;
54627;SDS011;40525;55.926;21.066;2024-02-21T02:45:39;0.60;;;0.30;;
54627;SDS011;40525;55.926;21.066;2024-02-21T02:48:06;0.30;;;0.20;;
54627;SDS011;40525;55.926;21.066;2024-02-21T02:50:33;0.50;;;0.40;;
54627;SDS011;40525;55.926;21.066;2024-02-21T02:53:00;0.30;;;0.20;;
54627;SDS011;40525;55.926;21.066;2024-02-21T02:55:27;1.40;;;0.50;;
54627;SDS011;40525;55.926;21.066;2024-02-21T02:57:54;0.60;;;0.50;;
54627;SDS011;40525;55.926;21.066;2024-02-21T03:00:22;0.80;;;0.30;;
54627;SDS011;40525;55.926;21.066;2024-02-21T03:02:49;0.60;;;0.20;;
54627;SDS011;40525;55.926;21.066;2024-02-21T03:05:20;1.10;;;0.40;;
54627;SDS011;40525;55.926;21.066;2024-02-21T03:07:48;0.40;;;0.30;;
54627;SDS011;40525;55.926;21.066;2024-02-21T03:10:16;0.40;;;0.40;;
54627;SDS011;40525;55.926;21.066;2024-02-21T03:12:44;0.50;;;0.40;;
54627;SDS011;40525;55.926;21.066;2024-02-21T03:15:12;0.60;;;0.30;;
54627;SDS011;40525;55.926;21.066;2024-02-21T03:17:40;0.30;;;0.20;;
54627;SDS011;40525;55.926;21.066;2024-02-21T03:20:08;0.40;;;0.40;;
54627;SDS011;40525;55.926;21.066;2024-02-21T03:22:39;0.70;;;0.40;;
54627;SDS011;40525;55.926;21.066;2024-02-21T03:25:08;0.40;;;0.30;;
54627;SDS011;40525;55.926;21.066;2024-02-21T03:27:35;1.10;;;0.30;;
54627;SDS011;40525;55.926;21.066;2024-02-21T03:30:03;0.60;;;0.20;;
54627;SDS011;40525;55.926;21.066;2024-02-21T03:32:31;0.40;;;0.30;;
54627;SDS011;40525;55.926;21.066;2024-02-21T03:34:58;0.20;;;0.10;;
54627;SDS011;40525;55.926;21.066;2024-02-21T03:37:25;1.80;;;0.20;;
54627;SDS011;40525;55.926;21.066;2024-02-21T03:39:53;0.70;;;0.30;;
54627;SDS011;40525;55.926;21.066;2024-02-21T03:42:20;0.60;;;0.40;;
54627;SDS011;40525;55.926;21.066;2024-02-21T03:44:47;0.60;;;0.30;;
54627;SDS011;40525;55.926;21.066;2024-02-21T03:47:14;0.70;;;0.30;;
54627;SDS011;40525;55.926;21.066;2024-02-21T03:49:41;1.40;;;0.30;;
54627;SDS011;40525;55.926;21.066;2024-02-21T03:52:08;0.20;;;0.10;;
54627;SDS011;40525;55.926;21.066;2024-02-21T03:54:35;0.40;;;0.20;;
54627;SDS011;40525;55.926;21.066;2024-02-21T03:57:02;0.30;;;0.20;;
54627;SDS011;40525;55.926;21.066;2024-02-21T03:59:29;0.90;;;0.40;;
54627;SDS011;40525;55.926;21.066;2024-02-21T04:01:56;0.40;;;0.30;;
54627;SDS011;40525;55.926;21.066;2024-02-21T04:04:24;0.40;;;0.30;;
54627;SDS011;40525;55.926;21.066;2024-02-21T04:06:51;0.70;;;0.30;;
54627;SDS011;40525;55.926;21.066;2024-02-21T04:09:18;0.60;;;0.40;;
54627;SDS011;40525;55.926;21.066;2024-02-21T04:11:46;0.40;;;0.30;;
54627;SDS011;40525;55.926;21.066;2024-02-21T04:14:12;3.10;;;1.40;;
54627;SDS011;40525;55.926;21.066;2024-02-21T04:16:40;3.90;;;1.90;;
54627;SDS011;40525;55.926;21.066;2024-02-21T04:19:07;4.10;;;2.00;;
54627;SDS011;40525;55.926;21.066;2024-02-21T04:21:35;1.60;;;0.80;;
54627;SDS011;40525;55.926;21.066;2024-02-21T04:24:02;1.40;;;1.00;;
54627;SDS011;40525;55.926;21.066;2024-02-21T04:26:33;2.10;;;1.30;;
54627;SDS011;40525;55.926;21.066;2024-02-21T04:29:02;1.00;;;0.70;;
54627;SDS011;40525;55.926;21.066;2024-02-21T04:31:31;1.60;;;0.60;;
54627;SDS011;40525;55.926;21.066;2024-02-21T04:33:59;1.90;;;0.80;;
54627;SDS011;40525;55.926;21.066;2024-02-21T04:36:26;0.90;;;0.80;;
54627;SDS011;40525;55.926;21.066;2024-02-21T04:38:53;5.20;;;1.80;;
54627;SDS011;40525;55.926;21.066;2024-02-21T04:41:19;1.30;;;0.90;;
54627;SDS011;40525;55.926;21.066;2024-02-21T04:43:46;2.20;;;0.90;;
54627;SDS011;40525;55.926;21.066;2024-02-21T04:46:16;1.90;;;0.80;;
54627;SDS011;40525;55.926;21.066;2024-02-21T04:48:43;3.10;;;0.70;;
54627;SDS011;40525;55.926;21.066;2024-02-21T04:51:11;1.20;;;0.60;;
54627;SDS011;40525;55.926;21.066;2024-02-21T04:53:38;1.30;;;0.40;;
54627;SDS011;40525;55.926;21.066;2024-02-21T04:56:05;0.80;;;0.40;;
54627;SDS011;40525;55.926;21.066;2024-02-21T04:58:32;2.10;;;0.80;;
54627;SDS011;40525;55.926;21.066;2024-02-21T05:00:59;1.00;;;0.60;;
54627;SDS011;40525;55.926;21.066;2024-02-21T05:03:26;1.80;;;0.80;;
54627;SDS011;40525;55.926;21.066;2024-02-21T05:05:53;1.10;;;0.70;;
54627;SDS011;40525;55.926;21.066;2024-02-21T05:08:21;1.60;;;0.60;;
54627;SDS011;40525;55.926;21.066;2024-02-21T05:10:48;1.30;;;0.40;;
54627;SDS011;40525;55.926;21.066;2024-02-21T05:13:15;2.40;;;0.50;;
54627;SDS011;40525;55.926;21.066;2024-02-21T05:15:42;0.70;;;0.60;;
54627;SDS011;40525;55.926;21.066;2024-02-21T05:18:09;0.70;;;0.40;;
54627;SDS011;40525;55.926;21.066;2024-02-21T05:20:36;2.10;;;0.70;;
54627;SDS011;40525;55.926;21.066;2024-02-21T05:23:03;1.70;;;0.40;;
54627;SDS011;40525;55.926;21.066;2024-02-21T05:25:30;0.90;;;0.20;;
54627;SDS011;40525;55.926;21.066;2024-02-21T05:27:57;1.40;;;0.40;;
54627;SDS011;40525;55.926;21.066;2024-02-21T05:30:29;0.40;;;0.20;;
54627;SDS011;40525;55.926;21.066;2024-02-21T05:32:56;0.40;;;0.30;;
54627;SDS011;40525;55.926;21.066;2024-02-21T05:35:27;2.50;;;0.40;;
54627;SDS011;40525;55.926;21.066;2024-02-21T05:37:56;2.20;;;0.30;;
54627;SDS011;40525;55.926;21.066;2024-02-21T05:40:23;2.10;;;0.70;;
54627;SDS011;40525;55.926;21.066;2024-02-21T05:42:50;3.50;;;0.40;;
54627;SDS011;40525;55.926;21.066;2024-02-21T05:45:18;1.00;;;0.30;;
54627;SDS011;40525;55.926;21.066;2024-02-21T05:47:45;2.70;;;0.40;;
54627;SDS011;40525;55.926;21.066;2024-02-21T05:50:12;1.60;;;0.40;;
54627;SDS011;40525;55.926;21.066;2024-02-21T05:52:39;1.00;;;0.30;;
54627;SDS011;40525;55.926;21.066;2024-02-21T05:55:07;2.20;;;0.60;;
54627;SDS011;40525;55.926;21.066;2024-02-21T05:57:35;3.60;;;0.60;;
54627;SDS011;40525;55.926;21.066;2024-02-21T06:00:03;3.60;;;0.70;;
54627;SDS011;40525;55.926;21.066;2024-02-21T06:02:37;1.80;;;0.40;;
54627;SDS011;40525;55.926;21.066;2024-02-21T06:05:04;4.20;;;0.70;;
54627;SDS011;40525;55.926;21.066;2024-02-21T06:07:34;2.90;;;0.60;;
54627;SDS011;40525;55.926;21.066;2024-02-21T06:10:02;2.20;;;0.90;;
54627;SDS011;40525;55.926;21.066;2024-02-21T06:12:29;4.30;;;0.60;;
54627;SDS011;40525;55.926;21.066;2024-02-21T06:14:56;1.80;;;0.40;;
54627;SDS011;40525;55.926;21.066;2024-02-21T06:17:23;3.70;;;0.80;;
54627;SDS011;40525;55.926;21.066;2024-02-21T06:19:50;3.20;;;0.80;;
54627;SDS011;40525;55.926;21.066;2024-02-21T06:22:17;3.30;;;0.90;;
54627;SDS011;40525;55.926;21.066;2024-02-21T06:24:44;2.20;;;0.90;;
54627;SDS011;40525;55.926;21.066;2024-02-21T06:27:12;2.60;;;0.90;;
54627;SDS011;40525;55.926;21.066;2024-02-21T06:29:41;5.30;;;0.90;;
54627;SDS011;40525;55.926;21.066;2024-02-21T06:32:08;3.30;;;0.70;;
54627;SDS011;40525;55.926;21.066;2024-02-21T06:34:35;5.30;;;0.90;;
54627;SDS011;40525;55.926;21.066;2024-02-21T06:37:02;3.60;;;1.00;;
54627;SDS011;40525;55.926;21.066;2024-02-21T06:39:29;8.00;;;1.10;;
54627;SDS011;40525;55.926;21.066;2024-02-21T06:41:56;2.40;;;0.90;;
54627;SDS011;40525;55.926;21.066;2024-02-21T06:44:29;4.00;;;1.00;;
54627;SDS011;40525;55.926;21.066;2024-02-21T06:46:56;5.70;;;1.20;;
54627;SDS011;40525;55.926;21.066;2024-02-21T06:49:23;4.80;;;1.30;;
54627;SDS011;40525;55.926;21.066;2024-02-21T06:51:50;8.80;;;1.10;;
54627;SDS011;40525;55.926;21.066;2024-02-21T06:54:17;8.60;;;1.60;;
54627;SDS011;40525;55.926;21.066;2024-02-21T06:56:44;9.50;;;1.60;;
54627;SDS011;40525;55.926;21.066;2024-02-21T06:59:11;13.00;;;1.60;;
54627;SDS011;40525;55.926;21.066;2024-02-21T07:01:48;14.30;;;1.50;;
54627;SDS011;40525;55.926;21.066;2024-02-21T07:04:17;27.50;;;2.70;;
54627;SDS011;40525;55.926;21.066;2024-02-21T07:06:44;12.90;;;1.70;;
54627;SDS011;40525;55.926;21.066;2024-02-21T07:09:11;9.60;;;2.00;;
54627;SDS011;40525;55.926;21.066;2024-02-21T07:11:38;9.50;;;1.90;;
54627;SDS011;40525;55.926;21.066;2024-02-21T07:14:05;7.30;;;1.50;;
54627;SDS011;40525;55.926;21.066;2024-02-21T07:16:32;11.10;;;1.90;;
54627;SDS011;40525;55.926;21.066;2024-02-21T07:19:00;7.00;;;1.70;;
54627;SDS011;40525;55.926;21.066;2024-02-21T07:21:27;7.70;;;1.60;;
54627;SDS011;40525;55.926;21.066;2024-02-21T07:23:54;6.40;;;1.40;;
54627;SDS011;40525;55.926;21.066;2024-02-21T07:26:21;6.00;;;1.40;;
54627;SDS011;40525;55.926;21.066;2024-02-21T07:28:48;6.00;;;1.40;;
54627;SDS011;40525;55.926;21.066;2024-02-21T07:31:16;4.60;;;1.10;;
54627;SDS011;40525;55.926;21.066;2024-02-21T07:33:43;4.50;;;1.40;;
54627;SDS011;40525;55.926;21.066;2024-02-21T07:36:11;5.20;;;1.30;;
54627;SDS011;40525;55.926;21.066;2024-02-21T07:38:38;4.60;;;1.20;;
54627;SDS011;40525;55.926;21.066;2024-02-21T07:41:06;4.40;;;1.40;;
54627;SDS011;40525;55.926;21.066;2024-02-21T07:43:33;5.50;;;1.30;;
54627;SDS011;40525;55.926;21.066;2024-02-21T07:46:00;7.30;;;1.80;;
54627;SDS011;40525;55.926;21.066;2024-02-21T07:48:27;3.10;;;0.90;;
54627;SDS011;40525;55.926;21.066;2024-02-21T07:50:56;2.80;;;0.90;;
54627;SDS011;40525;55.926;21.066;2024-02-21T07:53:23;3.90;;;1.00;;
54627;SDS011;40525;55.926;21.066;2024-02-21T07:55:50;5.90;;;1.30;;
54627;SDS011;40525;55.926;21.066;2024-02-21T07:58:17;3.60;;;0.70;;
54627;SDS011;40525;55.926;21.066;2024-02-21T08:00:44;2.90;;;0.80;;
54627;SDS011;40525;55.926;21.066;2024-02-21T08:03:11;3.70;;;1.40;;
54627;SDS011;40525;55.926;21.066;2024-02-21T08:05:38;1.80;;;0.90;;
54627;SDS011;40525;55.926;21.066;2024-02-21T08:08:05;2.50;;;1.00;;
54627;SDS011;40525;55.926;21.066;2024-02-21T08:10:34;2.80;;;0.90;;
54627;SDS011;40525;55.926;21.066;2024-02-21T08:13:01;4.40;;;1.00;;
54627;SDS011;40525;55.926;21.066;2024-02-21T08:15:28;4.40;;;1.00;;
54627;SDS011;40525;55.926;21.066;2024-02-21T08:17:56;4.10;;;0.80;;
54627;SDS011;40525;55.926;21.066;2024-02-21T08:20:27;1.90;;;0.60;;
54627;SDS011;40525;55.926;21.066;2024-02-21T08:22:54;1.80;;;0.70;;
54627;SDS011;40525;55.926;21.066;2024-02-21T08:25:21;1.70;;;0.90;;
54627;SDS011;40525;55.926;21.066;2024-02-21T08:27:48;1.80;;;0.90;;
54627;SDS011;40525;55.926;21.066;2024-02-21T08:30:16;4.40;;;1.20;;
54627;SDS011;40525;55.926;21.066;2024-02-21T08:32:43;1.90;;;1.10;;
54627;SDS011;40525;55.926;21.066;2024-02-21T08:35:10;2.30;;;1.10;;
54627;SDS011;40525;55.926;21.066;2024-02-21T08:37:37;2.00;;;0.90;;
54627;SDS011;40525;55.926;21.066;2024-02-21T08:40:04;2.90;;;0.80;;
54627;SDS011;40525;55.926;21.066;2024-02-21T08:42:36;7.70;;;0.80;;
54627;SDS011;40525;55.926;21.066;2024-02-21T08:45:05;1.80;;;0.70;;
54627;SDS011;40525;55.926;21.066;2024-02-21T08:47:32;3.20;;;1.00;;
54627;SDS011;40525;55.926;21.066;2024-02-21T08:49:59;2.90;;;1.20;;
54627;SDS011;40525;55.926;21.066;2024-02-21T08:52:40;1.90;;;0.70;;
54627;SDS011;40525;55.926;21.066;2024-02-21T08:55:08;1.40;;;0.40;;
54627;SDS011;40525;55.926;21.066;2024-02-21T08:57:35;1.60;;;0.70;;
54627;SDS011;40525;55.926;21.066;2024-02-21T09:00:04;3.50;;;0.90;;
54627;SDS011;40525;55.926;21.066;2024-02-21T09:02:39;1.60;;;0.70;;
54627;SDS011;40525;55.926;21.066;2024-02-21T09:05:07;1.00;;;0.80;;
54627;SDS011;40525;55.926;21.066;2024-02-21T09:07:35;2.10;;;1.10;;
54627;SDS011;40525;55.926;21.066;2024-02-21T09:10:02;2.30;;;1.00;;
54627;SDS011;40525;55.926;21.066;2024-02-21T09:12:29;2.90;;;1.20;;
54627;SDS011;40525;55.926;21.066;2024-02-21T09:14:57;3.20;;;1.20;;
54627;SDS011;40525;55.926;21.066;2024-02-21T09:17:24;3.40;;;1.40;;
54627;SDS011;40525;55.926;21.066;2024-02-21T09:19:51;3.10;;;1.60;;
54627;SDS011;40525;55.926;21.066;2024-02-21T09:22:19;5.90;;;1.70;;
54627;SDS011;40525;55.926;21.066;2024-02-21T09:24:46;4.30;;;1.90;;
54627;SDS011;40525;55.926;21.066;2024-02-21T09:27:14;2.20;;;1.50;;
54627;SDS011;40525;55.926;21.066;2024-02-21T09:29:41;3.60;;;1.60;;
54627;SDS011;40525;55.926;21.066;2024-02-21T09:32:08;3.80;;;1.90;;
54627;SDS011;40525;55.926;21.066;2024-02-21T09:34:35;3.10;;;1.60;;
54627;SDS011;40525;55.926;21.066;2024-02-21T09:37:03;2.40;;;1.60;;
54627;SDS011;40525;55.926;21.066;2024-02-21T09:39:30;3.60;;;1.70;;
54627;SDS011;40525;55.926;21.066;2024-02-21T09:42:02;3.80;;;1.40;;
54627;SDS011;40525;55.926;21.066;2024-02-21T09:44:33;4.60;;;1.70;;
54627;SDS011;40525;55.926;21.066;2024-02-21T09:47:06;5.00;;;1.90;;
54627;SDS011;40525;55.926;21.066;2024-02-21T09:49:36;7.20;;;2.50;;
54627;SDS011;40525;55.926;21.066;2024-02-21T09:52:07;3.80;;;1.60;;
54627;SDS011;40525;55.926;21.066;2024-02-21T09:54:34;5.40;;;1.80;;
54627;SDS011;40525;55.926;21.066;2024-02-21T09:57:02;1.60;;;0.90;;
54627;SDS011;40525;55.926;21.066;2024-02-21T09:59:31;3.00;;;1.40;;
54627;SDS011;40525;55.926;21.066;2024-02-21T10:01:59;3.70;;;1.50;;
54627;SDS011;40525;55.926;21.066;2024-02-21T10:04:30;3.60;;;1.20;;
54627;SDS011;40525;55.926;21.066;2024-02-21T10:06:59;4.20;;;1.40;;
54627;SDS011;40525;55.926;21.066;2024-02-21T10:09:26;2.50;;;1.30;;
54627;SDS011;40525;55.926;21.066;2024-02-21T10:12:06;2.00;;;1.20;;
54627;SDS011;40525;55.926;21.066;2024-02-21T10:14:39;5.60;;;2.10;;
54627;SDS011;40525;55.926;21.066;2024-02-21T10:17:06;5.20;;;2.40;;
54627;SDS011;40525;55.926;21.066;2024-02-21T10:19:38;5.00;;;2.20;;
54627;SDS011;40525;55.926;21.066;2024-02-21T10:22:08;4.60;;;2.20;;
54627;SDS011;40525;55.926;21.066;2024-02-21T10:24:36;4.70;;;2.10;;
54627;SDS011;40525;55.926;21.066;2024-02-21T10:27:06;8.10;;;2.40;;
54627;SDS011;40525;55.926;21.066;2024-02-21T10:29:39;6.70;;;2.90;;
54627;SDS011;40525;55.926;21.066;2024-02-21T10:32:08;9.80;;;2.80;;
54627;SDS011;40525;55.926;21.066;2024-02-21T10:34:38;6.60;;;2.80;;
54627;SDS011;40525;55.926;21.066;2024-02-21T10:37:07;7.30;;;2.10;;
54627;SDS011;40525;55.926;21.066;2024-02-21T10:39:39;6.30;;;2.90;;
54627;SDS011;40525;55.926;21.066;2024-02-21T10:42:10;8.50;;;3.40;;
54627;SDS011;40525;55.926;21.066;2024-02-21T10:44:39;4.40;;;2.00;;
54627;SDS011;40525;55.926;21.066;2024-02-21T10:47:09;6.60;;;2.80;;
54627;SDS011;40525;55.926;21.066;2024-02-21T10:49:39;7.70;;;3.10;;
54627;SDS011;40525;55.926;21.066;2024-02-21T10:55:16;5.60;;;2.40;;
54627;SDS011;40525;55.926;21.066;2024-02-21T10:57:53;5.30;;;2.30;;
54627;SDS011;40525;55.926;21.066;2024-02-21T11:00:24;6.40;;;2.60;;
54627;SDS011;40525;55.926;21.066;2024-02-21T11:02:57;9.10;;;2.80;;
54627;SDS011;40525;55.926;21.066;2024-02-21T11:05:27;4.80;;;2.90;;
54627;SDS011;40525;55.926;21.066;2024-02-21T11:07:55;6.40;;;3.10;;
54627;SDS011;40525;55.926;21.066;2024-02-21T11:10:23;6.50;;;2.30;;
54627;SDS011;40525;55.926;21.066;2024-02-21T11:13:04;5.50;;;2.80;;
54627;SDS011;40525;55.926;21.066;2024-02-21T11:15:35;9.10;;;3.30;;
54627;SDS011;40525;55.926;21.066;2024-02-21T11:18:02;5.30;;;2.60;;
54627;SDS011;40525;55.926;21.066;2024-02-21T11:20:37;7.10;;;3.60;;
54627;SDS011;40525;55.926;21.066;2024-02-21T11:23:05;6.80;;;2.20;;
54627;SDS011;40525;55.926;21.066;2024-02-21T11:25:32;5.60;;;3.10;;
54627;SDS011;40525;55.926;21.066;2024-02-21T11:30:37;3.60;;;2.30;;
54627;SDS011;40525;55.926;21.066;2024-02-21T11:33:07;7.90;;;3.00;;
54627;SDS011;40525;55.926;21.066;2024-02-21T11:35:35;7.00;;;2.60;;
54627;SDS011;40525;55.926;21.066;2024-02-21T11:38:10;6.90;;;3.10;;
54627;SDS011;40525;55.926;21.066;2024-02-21T11:40:44;4.70;;;2.60;;
54627;SDS011;40525;55.926;21.066;2024-02-21T11:43:12;8.20;;;2.80;;
54627;SDS011;40525;55.926;21.066;2024-02-21T11:45:39;4.20;;;1.90;;
54627;SDS011;40525;55.926;21.066;2024-02-21T11:48:07;5.70;;;2.80;;
54627;SDS011;40525;55.926;21.066;2024-02-21T11:50:35;5.90;;;3.10;;
54627;SDS011;40525;55.926;21.066;2024-02-21T11:53:06;8.70;;;3.20;;
54627;SDS011;40525;55.926;21.066;2024-02-21T11:55:33;7.00;;;3.90;;
54627;SDS011;40525;55.926;21.066;2024-02-21T11:58:01;6.80;;;3.50;;
54627;SDS011;40525;55.926;21.066;2024-02-21T12:00:28;7.00;;;3.20;;
54627;SDS011;40525;55.926;21.066;2024-02-21T12:02:55;6.40;;;3.50;;
54627;SDS011;40525;55.926;21.066;2024-02-21T12:05:29;5.20;;;2.90;;
54627;SDS011;40525;55.926;21.066;2024-02-21T12:07:57;6.10;;;2.70;;
54627;SDS011;40525;55.926;21.066;2024-02-21T12:10:27;3.90;;;2.30;;
54627;SDS011;40525;55.926;21.066;2024-02-21T12:13:05;4.80;;;2.70;;
54627;SDS011;40525;55.926;21.066;2024-02-21T12:15:34;7.60;;;3.40;;
54627;SDS011;40525;55.926;21.066;2024-02-21T12:18:01;8.50;;;4.00;;
54627;SDS011;40525;55.926;21.066;2024-02-21T12:20:28;5.90;;;2.60;;
54627;SDS011;40525;55.926;21.066;2024-02-21T12:23:01;8.80;;;3.30;;
54627;SDS011;40525;55.926;21.066;2024-02-21T12:25:30;5.10;;;2.90;;
54627;SDS011;40525;55.926;21.066;2024-02-21T12:27:58;5.40;;;3.10;;
54627;SDS011;40525;55.926;21.066;2024-02-21T12:30:26;6.90;;;3.10;;
54627;SDS011;40525;55.926;21.066;2024-02-21T12:32:53;8.20;;;3.20;;
54627;SDS011;40525;55.926;21.066;2024-02-21T12:35:21;7.40;;;3.30;;
54627;SDS011;40525;55.926;21.066;2024-02-21T12:37:48;4.00;;;2.20;;
54627;SDS011;40525;55.926;21.066;2024-02-21T12:40:15;5.20;;;2.90;;
54627;SDS011;40525;55.926;21.066;2024-02-21T12:42:43;9.30;;;2.80;;
54627;SDS011;40525;55.926;21.066;2024-02-21T12:45:12;6.00;;;2.70;;
54627;SDS011;40525;55.926;21.066;2024-02-21T12:47:39;9.40;;;3.30;;
54627;SDS011;40525;55.926;21.066;2024-02-21T12:50:07;6.60;;;3.60;;
54627;SDS011;40525;55.926;21.066;2024-02-21T12:52:34;4.80;;;2.70;;
54627;SDS011;40525;55.926;21.066;2024-02-21T12:55:02;4.60;;;2.20;;
54627;SDS011;40525;55.926;21.066;2024-02-21T12:57:29;6.10;;;2.90;;
54627;SDS011;40525;55.926;21.066;2024-02-21T12:59:56;8.50;;;3.20;;
54627;SDS011;40525;55.926;21.066;2024-02-21T13:02:23;4.90;;;1.90;;
54627;SDS011;40525;55.926;21.066;2024-02-21T13:04:50;8.10;;;3.40;;
54627;SDS011;40525;55.926;21.066;2024-02-21T13:07:18;7.70;;;2.90;;
54627;SDS011;40525;55.926;21.066;2024-02-21T13:09:45;5.40;;;3.00;;
54627;SDS011;40525;55.926;21.066;2024-02-21T13:12:13;5.90;;;3.30;;
54627;SDS011;40525;55.926;21.066;2024-02-21T13:14:40;5.50;;;2.90;;
54627;SDS011;40525;55.926;21.066;2024-02-21T13:17:10;6.20;;;2.90;;
54627;SDS011;40525;55.926;21.066;2024-02-21T13:19:37;7.10;;;3.20;;
54627;SDS011;40525;55.926;21.066;2024-02-21T13:22:04;7.00;;;2.90;;
54627;SDS011;40525;55.926;21.066;2024-02-21T13:24:33;8.30;;;3.50;;
54627;SDS011;40525;55.926;21.066;2024-02-21T13:27:00;4.70;;;2.30;;
54627;SDS011;40525;55.926;21.066;2024-02-21T13:29:28;5.40;;;3.10;;
54627;SDS011;40525;55.926;21.066;2024-02-21T13:31:55;8.10;;;3.40;;
54627;SDS011;40525;55.926;21.066;2024-02-21T13:34:26;5.40;;;3.10;;
54627;SDS011;40525;55.926;21.066;2024-02-21T13:36:53;9.40;;;3.40;;
54627;SDS011;40525;55.926;21.066;2024-02-21T13:39:20;4.50;;;2.80;;
54627;SDS011;40525;55.926;21.066;2024-02-21T13:41:47;6.90;;;3.00;;
54627;SDS011;40525;55.926;21.066;2024-02-21T13:44:14;4.50;;;2.20;;
54627;SDS011;40525;55.926;21.066;2024-02-21T13:46:41;7.10;;;3.60;;
54627;SDS011;40525;55.926;21.066;2024-02-21T13:49:08;5.30;;;3.00;;
54627;SDS011;40525;55.926;21.066;2024-02-21T13:51:40;7.40;;;3.50;;
54627;SDS011;40525;55.926;21.066;2024-02-21T13:54:09;7.80;;;3.70;;
54627;SDS011;40525;55.926;21.066;2024-02-21T13:56:38;11.30;;;3.70;;
54627;SDS011;40525;55.926;21.066;2024-02-21T13:59:04;5.70;;;3.00;;
54627;SDS011;40525;55.926;21.066;2024-02-21T14:01:32;7.00;;;3.50;;
54627;SDS011;40525;55.926;21.066;2024-02-21T14:03:59;5.50;;;1.90;;
54627;SDS011;40525;55.926;21.066;2024-02-21T14:06:26;8.30;;;3.40;;
54627;SDS011;40525;55.926;21.066;2024-02-21T14:08:54;9.40;;;3.80;;
54627;SDS011;40525;55.926;21.066;2024-02-21T14:11:21;6.20;;;3.30;;
54627;SDS011;40525;55.926;21.066;2024-02-21T14:13:48;5.50;;;3.00;;
54627;SDS011;40525;55.926;21.066;2024-02-21T14:16:16;7.40;;;3.70;;
54627;SDS011;40525;55.926;21.066;2024-02-21T14:18:42;8.40;;;3.00;;
54627;SDS011;40525;55.926;21.066;2024-02-21T14:21:12;11.90;;;3.80;;
54627;SDS011;40525;55.926;21.066;2024-02-21T14:23:40;9.20;;;3.60;;
54627;SDS011;40525;55.926;21.066;2024-02-21T14:26:07;10.00;;;3.50;;
54627;SDS011;40525;55.926;21.066;2024-02-21T14:28:34;8.60;;;4.80;;
54627;SDS011;40525;55.926;21.066;2024-02-21T14:31:01;10.20;;;4.30;;
54627;SDS011;40525;55.926;21.066;2024-02-21T14:33:30;8.80;;;4.00;;
54627;SDS011;40525;55.926;21.066;2024-02-21T14:35:58;9.00;;;4.30;;
54627;SDS011;40525;55.926;21.066;2024-02-21T14:38:26;6.70;;;3.60;;
54627;SDS011;40525;55.926;21.066;2024-02-21T14:40:54;8.30;;;3.60;;
54627;SDS011;40525;55.926;21.066;2024-02-21T14:43:22;9.00;;;4.10;;